sensor_id;sensor_type;location;lat;lon;timestamp;pressure;altitude;pressure_sealevel;temperature;humidity
40850;BME280;26571;41.610;25.380;2023-02-14T00:02:08;99798.00;;;3.16;51.68
40850;BME280;26571;41.610;25.380;2023-02-14T00:04:34;99790.94;;;3.18;51.05
40850;BME280;26571;41.610;25.380;2023-02-14T00:07:03;99800.72;;;3.15;51.26
40850;BME280;26571;41.610;25.380;2023-02-14T00:09:28;99804.25;;;3.14;50.93
40850;BME280;26571;41.610;25.380;2023-02-14T00:11:54;99802.88;;;3.06;50.42
40850;BME280;26571;41.610;25.380;2023-02-14T00:14:19;99791.06;;;3.01;50.91
40850;BME280;26571;41.610;25.380;2023-02-14T00:17:03;99804.16;;;2.99;51.05
40850;BME280;26571;41.610;25.380;2023-02-14T00:19:29;99794.84;;;2.95;50.59
40850;BME280;26571;41.610;25.380;2023-02-14T00:21:56;99786.47;;;2.90;50.94
40850;BME280;26571;41.610;25.380;2023-02-14T00:24:23;99788.47;;;2.85;52.27
40850;BME280;26571;41.610;25.380;2023-02-14T00:26:49;99779.00;;;2.84;50.95
40850;BME280;26571;41.610;25.380;2023-02-14T00:29:27;99768.31;;;2.73;51.16
40850;BME280;26571;41.610;25.380;2023-02-14T00:31:54;99775.47;;;2.69;50.99
40850;BME280;26571;41.610;25.380;2023-02-14T00:34:19;99781.50;;;2.70;50.58
40850;BME280;26571;41.610;25.380;2023-02-14T00:36:45;99780.91;;;2.65;50.77
40850;BME280;26571;41.610;25.380;2023-02-14T00:39:13;99775.88;;;2.62;50.33
40850;BME280;26571;41.610;25.380;2023-02-14T00:41:39;99777.16;;;2.54;51.30
40850;BME280;26571;41.610;25.380;2023-02-14T00:44:05;99778.03;;;2.38;52.29
40850;BME280;26571;41.610;25.380;2023-02-14T00:46:31;99768.06;;;2.30;51.81
40850;BME280;26571;41.610;25.380;2023-02-14T00:48:57;99755.53;;;2.21;54.25
40850;BME280;26571;41.610;25.380;2023-02-14T00:51:22;99768.88;;;2.30;52.74
40850;BME280;26571;41.610;25.380;2023-02-14T00:53:48;99767.13;;;2.31;52.10
40850;BME280;26571;41.610;25.380;2023-02-14T00:56:14;99765.59;;;2.27;52.89
40850;BME280;26571;41.610;25.380;2023-02-14T00:58:40;99766.09;;;2.33;52.85
40850;BME280;26571;41.610;25.380;2023-02-14T01:01:07;99761.09;;;2.30;52.59
40850;BME280;26571;41.610;25.380;2023-02-14T01:03:33;99758.59;;;2.29;53.00
40850;BME280;26571;41.610;25.380;2023-02-14T01:05:59;99756.41;;;2.37;52.70
40850;BME280;26571;41.610;25.380;2023-02-14T01:08:24;99734.44;;;2.27;51.36
40850;BME280;26571;41.610;25.380;2023-02-14T01:10:50;99764.09;;;2.39;51.70
40850;BME280;26571;41.610;25.380;2023-02-14T01:13:15;99757.66;;;2.30;51.59
40850;BME280;26571;41.610;25.380;2023-02-14T01:15:47;99756.00;;;2.29;52.01
40850;BME280;26571;41.610;25.380;2023-02-14T01:18:14;99758.75;;;2.26;51.31
40850;BME280;26571;41.610;25.380;2023-02-14T01:20:40;99759.56;;;2.26;52.44
40850;BME280;26571;41.610;25.380;2023-02-14T01:23:05;99760.41;;;2.27;53.56
40850;BME280;26571;41.610;25.380;2023-02-14T01:25:31;99766.97;;;2.34;53.32
40850;BME280;26571;41.610;25.380;2023-02-14T01:27:57;99751.63;;;2.29;51.95
40850;BME280;26571;41.610;25.380;2023-02-14T01:30:23;99759.78;;;2.39;50.81
40850;BME280;26571;41.610;25.380;2023-02-14T01:32:49;99761.00;;;2.32;51.05
40850;BME280;26571;41.610;25.380;2023-02-14T01:35:14;99755.44;;;2.22;51.27
40850;BME280;26571;41.610;25.380;2023-02-14T01:37:40;99759.91;;;2.20;52.07
40850;BME280;26571;41.610;25.380;2023-02-14T01:40:07;99695.78;;;1.72;52.93
40850;BME280;26571;41.610;25.380;2023-02-14T01:42:34;99752.81;;;2.06;52.64
40850;BME280;26571;41.610;25.380;2023-02-14T01:45:05;99761.22;;;2.12;52.39
40850;BME280;26571;41.610;25.380;2023-02-14T01:47:35;99758.03;;;2.06;53.71
40850;BME280;26571;41.610;25.380;2023-02-14T01:50:09;99752.56;;;1.95;54.37
40850;BME280;26571;41.610;25.380;2023-02-14T01:53:07;99753.31;;;1.97;54.05
40850;BME280;26571;41.610;25.380;2023-02-14T01:55:36;99752.19;;;1.86;55.07
40850;BME280;26571;41.610;25.380;2023-02-14T01:58:17;99742.03;;;1.81;53.85
40850;BME280;26571;41.610;25.380;2023-02-14T02:00:43;99742.19;;;1.78;54.32
40850;BME280;26571;41.610;25.380;2023-02-14T02:03:31;99742.72;;;1.85;52.49
40850;BME280;26571;41.610;25.380;2023-02-14T02:06:06;99735.69;;;1.87;52.97
40850;BME280;26571;41.610;25.380;2023-02-14T02:08:33;99731.31;;;1.87;52.77
40850;BME280;26571;41.610;25.380;2023-02-14T02:11:01;99710.59;;;1.70;53.06
40850;BME280;26571;41.610;25.380;2023-02-14T02:13:26;99729.19;;;1.78;53.64
40850;BME280;26571;41.610;25.380;2023-02-14T02:16:11;99730.81;;;1.80;53.59
40850;BME280;26571;41.610;25.380;2023-02-14T02:47:29;99710.00;;;1.65;53.22
40850;BME280;26571;41.610;25.380;2023-02-14T02:50:17;99697.91;;;1.64;53.40
40850;BME280;26571;41.610;25.380;2023-02-14T02:53:39;99705.03;;;1.60;53.80
40850;BME280;26571;41.610;25.380;2023-02-14T02:56:15;99705.41;;;1.70;53.11
40850;BME280;26571;41.610;25.380;2023-02-14T02:59:14;99695.91;;;1.69;53.16
40850;BME280;26571;41.610;25.380;2023-02-14T03:01:47;99658.91;;;1.32;53.25
40850;BME280;26571;41.610;25.380;2023-02-14T03:04:15;99708.34;;;1.46;53.49
40850;BME280;26571;41.610;25.380;2023-02-14T03:07:01;99703.22;;;1.45;53.60
40850;BME280;26571;41.610;25.380;2023-02-14T03:09:52;99684.16;;;1.28;52.99
40850;BME280;26571;41.610;25.380;2023-02-14T03:20:21;99697.03;;;1.13;54.04
40850;BME280;26571;41.610;25.380;2023-02-14T03:23:15;99698.66;;;1.15;54.49
40850;BME280;26571;41.610;25.380;2023-02-14T03:25:43;99701.63;;;1.25;55.18
40850;BME280;26571;41.610;25.380;2023-02-14T03:30:52;99695.06;;;1.35;54.04
40850;BME280;26571;41.610;25.380;2023-02-14T03:33:51;99688.97;;;1.36;54.01
40850;BME280;26571;41.610;25.380;2023-02-14T03:36:26;99667.00;;;1.26;54.08
40850;BME280;26571;41.610;25.380;2023-02-14T03:39:02;99616.72;;;0.94;54.75
40850;BME280;26571;41.610;25.380;2023-02-14T03:41:35;99675.69;;;1.25;54.19
40850;BME280;26571;41.610;25.380;2023-02-14T03:44:04;99672.94;;;1.28;55.27
40850;BME280;26571;41.610;25.380;2023-02-14T03:46:51;99675.38;;;1.14;55.14
40850;BME280;26571;41.610;25.380;2023-02-14T03:49:21;99691.78;;;0.97;55.15
40850;BME280;26571;41.610;25.380;2023-02-14T03:51:49;99658.59;;;0.86;54.83
40850;BME280;26571;41.610;25.380;2023-02-14T03:54:19;99675.38;;;0.96;54.63
40850;BME280;26571;41.610;25.380;2023-02-14T03:56:51;99670.63;;;0.87;54.51
40850;BME280;26571;41.610;25.380;2023-02-14T03:59:25;99680.88;;;0.90;56.06
40850;BME280;26571;41.610;25.380;2023-02-14T04:02:12;99677.88;;;0.98;53.83
40850;BME280;26571;41.610;25.380;2023-02-14T04:04:43;99668.81;;;0.89;56.74
40850;BME280;26571;41.610;25.380;2023-02-14T04:07:18;99655.56;;;0.95;56.28
40850;BME280;26571;41.610;25.380;2023-02-14T04:09:44;99642.06;;;1.06;56.77
40850;BME280;26571;41.610;25.380;2023-02-14T04:12:10;99668.50;;;1.13;54.75
40850;BME280;26571;41.610;25.380;2023-02-14T04:14:36;99669.56;;;1.09;54.87
40850;BME280;26571;41.610;25.380;2023-02-14T04:17:02;99658.91;;;1.15;54.13
40850;BME280;26571;41.610;25.380;2023-02-14T04:19:46;99650.38;;;1.13;54.30
40850;BME280;26571;41.610;25.380;2023-02-14T04:22:12;99654.84;;;1.09;55.50
40850;BME280;26571;41.610;25.380;2023-02-14T04:24:37;99659.91;;;1.12;55.75
40850;BME280;26571;41.610;25.380;2023-02-14T04:27:03;99657.06;;;1.17;55.17
40850;BME280;26571;41.610;25.380;2023-02-14T04:29:42;99655.09;;;1.22;54.81
40850;BME280;26571;41.610;25.380;2023-02-14T04:32:10;99664.22;;;1.29;54.95
40850;BME280;26571;41.610;25.380;2023-02-14T04:34:36;99655.16;;;1.38;54.69
40850;BME280;26571;41.610;25.380;2023-02-14T04:37:03;99650.50;;;1.44;55.29
40850;BME280;26571;41.610;25.380;2023-02-14T04:39:28;99647.66;;;1.49;55.39
40850;BME280;26571;41.610;25.380;2023-02-14T04:41:54;99651.72;;;1.54;53.66
40850;BME280;26571;41.610;25.380;2023-02-14T04:44:20;99648.25;;;1.54;52.66
40850;BME280;26571;41.610;25.380;2023-02-14T04:46:45;99640.78;;;1.48;54.23
40850;BME280;26571;41.610;25.380;2023-02-14T04:49:11;99653.69;;;1.49;53.72
40850;BME280;26571;41.610;25.380;2023-02-14T04:51:36;99632.72;;;1.37;53.45
40850;BME280;26571;41.610;25.380;2023-02-14T04:54:01;99643.47;;;1.46;53.25
40850;BME280;26571;41.610;25.380;2023-02-14T04:56:27;99643.38;;;1.48;53.85
40850;BME280;26571;41.610;25.380;2023-02-14T04:58:53;99644.31;;;1.47;55.05
40850;BME280;26571;41.610;25.380;2023-02-14T05:01:19;99641.84;;;1.44;53.48
40850;BME280;26571;41.610;25.380;2023-02-14T05:03:44;99643.47;;;1.46;54.58
40850;BME280;26571;41.610;25.380;2023-02-14T05:06:10;99643.78;;;1.40;54.03
40850;BME280;26571;41.610;25.380;2023-02-14T05:08:35;99631.72;;;1.39;53.26
40850;BME280;26571;41.610;25.380;2023-02-14T05:11:01;99621.59;;;1.35;55.12
40850;BME280;26571;41.610;25.380;2023-02-14T05:13:26;99614.34;;;1.24;55.14
40850;BME280;26571;41.610;25.380;2023-02-14T05:15:53;99591.50;;;0.97;55.39
40850;BME280;26571;41.610;25.380;2023-02-14T05:18:18;99627.03;;;1.13;54.67
40850;BME280;26571;41.610;25.380;2023-02-14T05:20:44;99611.09;;;1.03;53.84
40850;BME280;26571;41.610;25.380;2023-02-14T05:23:09;99611.41;;;0.97;53.36
40850;BME280;26571;41.610;25.380;2023-02-14T05:25:40;99637.78;;;1.05;54.40
40850;BME280;26571;41.610;25.380;2023-02-14T05:28:06;99638.78;;;1.02;53.91
40850;BME280;26571;41.610;25.380;2023-02-14T05:30:31;99636.97;;;1.05;53.14
40850;BME280;26571;41.610;25.380;2023-02-14T05:32:57;99587.53;;;0.56;54.18
40850;BME280;26571;41.610;25.380;2023-02-14T05:35:22;99632.81;;;0.83;54.49
40850;BME280;26571;41.610;25.380;2023-02-14T05:37:48;99587.91;;;0.83;54.71
40850;BME280;26571;41.610;25.380;2023-02-14T05:40:13;99623.44;;;1.66;53.98
40850;BME280;26571;41.610;25.380;2023-02-14T05:42:40;99629.84;;;2.39;51.92
40850;BME280;26571;41.610;25.380;2023-02-14T05:45:06;99619.28;;;3.02;50.93
40850;BME280;26571;41.610;25.380;2023-02-14T05:47:32;99624.19;;;3.80;49.22
40850;BME280;26571;41.610;25.380;2023-02-14T05:49:57;99613.78;;;4.62;46.42
40850;BME280;26571;41.610;25.380;2023-02-14T05:52:23;99615.13;;;5.46;44.50
40850;BME280;26571;41.610;25.380;2023-02-14T05:54:48;99600.50;;;6.18;43.73
40850;BME280;26571;41.610;25.380;2023-02-14T05:57:13;99611.84;;;7.02;41.96
40850;BME280;26571;41.610;25.380;2023-02-14T05:59:39;99598.34;;;7.64;40.01
40850;BME280;26571;41.610;25.380;2023-02-14T06:02:04;99592.09;;;8.21;38.92
40850;BME280;26571;41.610;25.380;2023-02-14T06:04:30;99596.13;;;8.69;39.26
40850;BME280;26571;41.610;25.380;2023-02-14T06:06:55;99605.00;;;9.10;36.83
40850;BME280;26571;41.610;25.380;2023-02-14T06:09:21;99602.13;;;9.33;36.05
40850;BME280;26571;41.610;25.380;2023-02-14T06:11:46;99601.72;;;9.38;36.64
40850;BME280;26571;41.610;25.380;2023-02-14T06:14:12;99596.59;;;9.98;35.67
40850;BME280;26571;41.610;25.380;2023-02-14T06:16:37;99582.88;;;10.54;34.68
40850;BME280;26571;41.610;25.380;2023-02-14T06:19:02;99560.81;;;10.84;34.17
40850;BME280;26571;41.610;25.380;2023-02-14T06:21:28;99578.59;;;11.48;33.18
40850;BME280;26571;41.610;25.380;2023-02-14T06:23:53;99582.94;;;11.77;32.56
40850;BME280;26571;41.610;25.380;2023-02-14T06:26:19;99583.97;;;12.21;32.60
40850;BME280;26571;41.610;25.380;2023-02-14T06:28:44;99579.28;;;12.78;31.22
40850;BME280;26571;41.610;25.380;2023-02-14T06:31:16;99582.88;;;13.21;30.45
40850;BME280;26571;41.610;25.380;2023-02-14T06:33:42;99582.13;;;13.55;30.39
40850;BME280;26571;41.610;25.380;2023-02-14T06:36:08;99584.91;;;13.79;29.48
40850;BME280;26571;41.610;25.380;2023-02-14T06:38:33;99589.59;;;13.93;28.90
40850;BME280;26571;41.610;25.380;2023-02-14T06:41:06;99597.59;;;13.67;29.23
40850;BME280;26571;41.610;25.380;2023-02-14T06:43:32;99598.53;;;13.58;29.50
40850;BME280;26571;41.610;25.380;2023-02-14T06:45:58;99591.56;;;13.91;29.08
40850;BME280;26571;41.610;25.380;2023-02-14T06:48:23;99587.06;;;14.18;28.85
40850;BME280;26571;41.610;25.380;2023-02-14T06:50:48;99578.78;;;14.29;28.84
40850;BME280;26571;41.610;25.380;2023-02-14T06:53:14;99543.19;;;14.23;29.61
40850;BME280;26571;41.610;25.380;2023-02-14T06:55:40;99585.91;;;14.37;28.74
40850;BME280;26571;41.610;25.380;2023-02-14T06:58:05;99567.69;;;14.17;28.72
40850;BME280;26571;41.610;25.380;2023-02-14T07:00:31;99560.50;;;13.93;29.38
40850;BME280;26571;41.610;25.380;2023-02-14T07:02:56;99557.38;;;13.30;30.38
40850;BME280;26571;41.610;25.380;2023-02-14T07:05:22;99557.56;;;13.70;29.75
40850;BME280;26571;41.610;25.380;2023-02-14T07:07:47;99555.19;;;13.93;29.91
40850;BME280;26571;41.610;25.380;2023-02-14T07:10:13;99556.09;;;13.68;30.44
40850;BME280;26571;41.610;25.380;2023-02-14T07:12:39;99548.16;;;13.76;30.13
40850;BME280;26571;41.610;25.380;2023-02-14T07:15:09;99551.38;;;13.88;29.75
40850;BME280;26571;41.610;25.380;2023-02-14T07:17:34;99548.16;;;13.76;30.49
40850;BME280;26571;41.610;25.380;2023-02-14T07:20:00;99560.22;;;14.21;30.23
40850;BME280;26571;41.610;25.380;2023-02-14T07:22:26;99556.38;;;14.74;29.01
40850;BME280;26571;41.610;25.380;2023-02-14T07:24:51;99552.22;;;15.12;29.36
40850;BME280;26571;41.610;25.380;2023-02-14T07:27:16;99540.69;;;15.44;28.78
40850;BME280;26571;41.610;25.380;2023-02-14T07:29:42;99548.94;;;15.66;28.66
40850;BME280;26571;41.610;25.380;2023-02-14T07:32:07;99548.00;;;15.98;27.73
40850;BME280;26571;41.610;25.380;2023-02-14T07:34:33;99544.44;;;16.06;27.88
40850;BME280;26571;41.610;25.380;2023-02-14T07:36:59;99564.25;;;15.47;28.11
40850;BME280;26571;41.610;25.380;2023-02-14T07:39:25;99564.78;;;13.94;29.70
40850;BME280;26571;41.610;25.380;2023-02-14T07:41:51;99562.00;;;13.10;32.28
40850;BME280;26571;41.610;25.380;2023-02-14T07:44:16;99554.41;;;13.33;31.48
40850;BME280;26571;41.610;25.380;2023-02-14T07:46:42;99548.16;;;13.76;30.80
40850;BME280;26571;41.610;25.380;2023-02-14T07:49:08;99545.59;;;14.01;30.25
40850;BME280;26571;41.610;25.380;2023-02-14T07:51:33;99543.63;;;13.60;30.99
40850;BME280;26571;41.610;25.380;2023-02-14T07:53:59;99543.22;;;13.81;31.54
40850;BME280;26571;41.610;25.380;2023-02-14T07:56:24;99541.47;;;13.56;31.22
40850;BME280;26571;41.610;25.380;2023-02-14T07:58:50;99541.22;;;13.75;31.34
40850;BME280;26571;41.610;25.380;2023-02-14T08:01:16;99534.44;;;14.23;30.51
40850;BME280;26571;41.610;25.380;2023-02-14T08:03:41;99533.34;;;14.58;30.26
40850;BME280;26571;41.610;25.380;2023-02-14T08:06:10;99523.06;;;14.55;29.51
40850;BME280;26571;41.610;25.380;2023-02-14T08:08:36;99517.31;;;13.93;30.90
40850;BME280;26571;41.610;25.380;2023-02-14T08:11:02;99514.44;;;13.78;30.70
40850;BME280;26571;41.610;25.380;2023-02-14T08:13:28;99505.50;;;13.79;30.26
40850;BME280;26571;41.610;25.380;2023-02-14T08:15:53;99501.03;;;13.11;31.18
40850;BME280;26571;41.610;25.380;2023-02-14T08:18:39;99508.41;;;13.00;31.72
40850;BME280;26571;41.610;25.380;2023-02-14T08:21:07;99501.88;;;13.38;31.21
40850;BME280;26571;41.610;25.380;2023-02-14T08:23:34;99496.72;;;13.28;31.55
40850;BME280;26571;41.610;25.380;2023-02-14T08:25:59;99502.28;;;12.99;31.25
40850;BME280;26571;41.610;25.380;2023-02-14T08:28:25;99500.00;;;12.78;31.77
40850;BME280;26571;41.610;25.380;2023-02-14T08:30:51;99510.22;;;12.55;31.83
40850;BME280;26571;41.610;25.380;2023-02-14T08:33:17;99507.13;;;12.60;33.65
40850;BME280;26571;41.610;25.380;2023-02-14T08:35:43;99503.97;;;12.38;32.43
40850;BME280;26571;41.610;25.380;2023-02-14T08:38:09;99496.41;;;12.08;32.87
40850;BME280;26571;41.610;25.380;2023-02-14T08:40:35;99500.03;;;12.07;34.57
40850;BME280;26571;41.610;25.380;2023-02-14T08:43:05;99482.16;;;12.19;35.27
40850;BME280;26571;41.610;25.380;2023-02-14T08:45:31;99519.19;;;12.45;33.78
40850;BME280;26571;41.610;25.380;2023-02-14T08:48:04;99520.19;;;12.87;34.18
40850;BME280;26571;41.610;25.380;2023-02-14T08:50:30;99525.19;;;13.16;32.20
40850;BME280;26571;41.610;25.380;2023-02-14T08:52:55;99516.53;;;13.32;33.24
40850;BME280;26571;41.610;25.380;2023-02-14T08:55:21;99495.16;;;13.52;33.92
40850;BME280;26571;41.610;25.380;2023-02-14T08:57:47;99523.09;;;13.88;30.22
40850;BME280;26571;41.610;25.380;2023-02-14T09:00:14;99526.66;;;13.37;31.01
40850;BME280;26571;41.610;25.380;2023-02-14T09:02:39;99527.28;;;13.31;32.09
40850;BME280;26571;41.610;25.380;2023-02-14T09:05:05;99534.72;;;13.09;31.71
40850;BME280;26571;41.610;25.380;2023-02-14T09:07:32;99530.28;;;13.10;31.81
40850;BME280;26571;41.610;25.380;2023-02-14T09:09:58;99518.44;;;12.70;32.21
40850;BME280;26571;41.610;25.380;2023-02-14T09:12:23;99525.34;;;12.71;32.62
40850;BME280;26571;41.610;25.380;2023-02-14T09:14:49;99512.31;;;12.96;32.89
40850;BME280;26571;41.610;25.380;2023-02-14T09:17:14;99505.22;;;12.70;32.24
40850;BME280;26571;41.610;25.380;2023-02-14T09:19:40;99494.38;;;12.55;32.93
40850;BME280;26571;41.610;25.380;2023-02-14T09:22:07;99490.28;;;12.43;33.21
40850;BME280;26571;41.610;25.380;2023-02-14T09:24:34;99487.56;;;12.17;32.37
40850;BME280;26571;41.610;25.380;2023-02-14T09:27:00;99470.69;;;11.92;32.39
40850;BME280;26571;41.610;25.380;2023-02-14T09:29:27;99481.88;;;12.04;32.45
40850;BME280;26571;41.610;25.380;2023-02-14T09:31:58;99472.44;;;12.19;33.33
40850;BME280;26571;41.610;25.380;2023-02-14T09:34:24;99467.38;;;12.44;32.03
40850;BME280;26571;41.610;25.380;2023-02-14T09:36:50;99464.03;;;12.41;32.68
40850;BME280;26571;41.610;25.380;2023-02-14T09:39:37;99434.56;;;12.28;32.49
40850;BME280;26571;41.610;25.380;2023-02-14T09:44:45;99451.72;;;13.02;31.88
40850;BME280;26571;41.610;25.380;2023-02-14T09:47:43;99349.56;;;12.51;31.17
40850;BME280;26571;41.610;25.380;2023-02-14T09:50:12;99438.97;;;12.89;31.74
40850;BME280;26571;41.610;25.380;2023-02-14T09:52:42;99438.50;;;12.24;32.58
40850;BME280;26571;41.610;25.380;2023-02-14T09:55:13;99431.81;;;12.56;32.38
40850;BME280;26571;41.610;25.380;2023-02-14T09:58:02;99422.94;;;12.65;31.55
40850;BME280;26571;41.610;25.380;2023-02-14T10:00:36;99432.75;;;12.99;32.62
40850;BME280;26571;41.610;25.380;2023-02-14T10:06:45;99415.78;;;13.52;31.07
40850;BME280;26571;41.610;25.380;2023-02-14T10:12:03;99404.69;;;13.40;29.90
40850;BME280;26571;41.610;25.380;2023-02-14T10:14:33;99408.81;;;13.42;29.12
40850;BME280;26571;41.610;25.380;2023-02-14T10:17:09;99355.22;;;13.32;29.50
40850;BME280;26571;41.610;25.380;2023-02-14T10:19:50;99384.75;;;13.70;29.25
40850;BME280;26571;41.610;25.380;2023-02-14T10:22:20;99382.16;;;14.03;28.22
40850;BME280;26571;41.610;25.380;2023-02-14T10:24:54;99374.19;;;14.11;28.47
40850;BME280;26571;41.610;25.380;2023-02-14T10:27:36;99370.06;;;14.00;28.24
40850;BME280;26571;41.610;25.380;2023-02-14T10:30:22;99366.25;;;14.27;27.70
40850;BME280;26571;41.610;25.380;2023-02-14T10:33:00;99366.25;;;14.27;29.19
40850;BME280;26571;41.610;25.380;2023-02-14T10:35:45;99324.72;;;14.03;29.18
40850;BME280;26571;41.610;25.380;2023-02-14T10:41:40;99349.19;;;14.38;27.43
40850;BME280;26571;41.610;25.380;2023-02-14T10:52:33;99335.75;;;14.39;27.68
40850;BME280;26571;41.610;25.380;2023-02-14T10:55:21;99331.47;;;14.38;28.89
40850;BME280;26571;41.610;25.380;2023-02-14T10:57:52;99316.88;;;14.59;28.72
40850;BME280;26571;41.610;25.380;2023-02-14T11:00:32;99311.91;;;14.56;27.25
40850;BME280;26571;41.610;25.380;2023-02-14T11:03:01;99322.16;;;14.67;27.08
40850;BME280;26571;41.610;25.380;2023-02-14T11:05:37;99315.06;;;14.27;26.47
40850;BME280;26571;41.610;25.380;2023-02-14T11:08:37;99308.69;;;13.88;26.76
40850;BME280;26571;41.610;25.380;2023-02-14T11:13:36;99306.19;;;14.03;30.71
40850;BME280;26571;41.610;25.380;2023-02-14T11:16:11;99300.00;;;14.35;27.69
40850;BME280;26571;41.610;25.380;2023-02-14T11:18:38;99301.41;;;14.70;28.69
40850;BME280;26571;41.610;25.380;2023-02-14T11:23:36;99289.03;;;15.33;29.67
40850;BME280;26571;41.610;25.380;2023-02-14T11:26:05;99284.56;;;15.57;28.67
40850;BME280;26571;41.610;25.380;2023-02-14T11:28:33;99274.94;;;15.79;28.38
40850;BME280;26571;41.610;25.380;2023-02-14T11:30:59;99244.03;;;15.63;26.20
40850;BME280;26571;41.610;25.380;2023-02-14T11:33:38;99268.06;;;15.61;27.39
40850;BME280;26571;41.610;25.380;2023-02-14T11:36:10;99264.50;;;15.77;27.95
40850;BME280;26571;41.610;25.380;2023-02-14T11:38:38;99250.78;;;15.88;28.00
40850;BME280;26571;41.610;25.380;2023-02-14T11:41:07;99247.13;;;15.89;27.53
40850;BME280;26571;41.610;25.380;2023-02-14T11:43:35;99238.88;;;15.84;29.05
40850;BME280;26571;41.610;25.380;2023-02-14T11:46:05;99242.31;;;15.70;28.88
40850;BME280;26571;41.610;25.380;2023-02-14T11:48:31;99246.09;;;15.75;28.61
40850;BME280;26571;41.610;25.380;2023-02-14T11:51:12;99241.09;;;15.58;28.13
40850;BME280;26571;41.610;25.380;2023-02-14T11:53:50;99239.06;;;15.60;28.53
40850;BME280;26571;41.610;25.380;2023-02-14T11:56:19;99236.41;;;15.60;28.96
40850;BME280;26571;41.610;25.380;2023-02-14T11:59:11;99230.28;;;15.59;29.64
40850;BME280;26571;41.610;25.380;2023-02-14T12:01:38;99221.81;;;15.64;28.07
40850;BME280;26571;41.610;25.380;2023-02-14T12:04:12;99214.34;;;15.36;29.40
40850;BME280;26571;41.610;25.380;2023-02-14T12:06:39;99206.53;;;15.20;28.95
40850;BME280;26571;41.610;25.380;2023-02-14T12:09:26;99202.56;;;14.62;31.40
40850;BME280;26571;41.610;25.380;2023-02-14T12:11:57;99209.63;;;14.38;29.48
40850;BME280;26571;41.610;25.380;2023-02-14T12:14:28;99185.28;;;13.87;31.65
40850;BME280;26571;41.610;25.380;2023-02-14T12:17:03;99189.84;;;14.10;32.25
40850;BME280;26571;41.610;25.380;2023-02-14T12:22:39;99185.66;;;14.23;31.79
40850;BME280;26571;41.610;25.380;2023-02-14T12:25:17;99183.16;;;14.22;32.16
40850;BME280;26571;41.610;25.380;2023-02-14T12:28:01;99186.06;;;14.04;31.77
40850;BME280;26571;41.610;25.380;2023-02-14T12:30:32;99176.41;;;14.11;32.86
40850;BME280;26571;41.610;25.380;2023-02-14T12:32:57;99155.31;;;13.95;32.35
40850;BME280;26571;41.610;25.380;2023-02-14T12:43:53;99169.13;;;14.92;31.75
40850;BME280;26571;41.610;25.380;2023-02-14T13:00:25;99167.06;;;14.48;30.95
40850;BME280;26571;41.610;25.380;2023-02-14T13:03:11;99158.72;;;14.59;32.03
40850;BME280;26571;41.610;25.380;2023-02-14T13:08:53;99165.59;;;14.37;31.54
40850;BME280;26571;41.610;25.380;2023-02-14T13:17:03;99159.22;;;14.46;31.89
40850;BME280;26571;41.610;25.380;2023-02-14T13:22:17;99182.50;;;14.28;33.76
40850;BME280;26571;41.610;25.380;2023-02-14T13:24:50;99168.16;;;14.06;32.85
40850;BME280;26571;41.610;25.380;2023-02-14T13:27:22;99170.47;;;14.09;33.59
40850;BME280;26571;41.610;25.380;2023-02-14T13:29:56;99178.63;;;14.00;33.08
40850;BME280;26571;41.610;25.380;2023-02-14T13:32:26;99181.63;;;13.88;32.80
40850;BME280;26571;41.610;25.380;2023-02-14T13:34:53;99180.69;;;13.73;33.78
40850;BME280;26571;41.610;25.380;2023-02-14T13:37:20;99173.06;;;13.70;33.16
40850;BME280;26571;41.610;25.380;2023-02-14T13:40:07;99171.44;;;13.53;33.71
40850;BME280;26571;41.610;25.380;2023-02-14T13:55:59;99152.25;;;12.93;34.41
40850;BME280;26571;41.610;25.380;2023-02-14T13:58:24;99171.06;;;12.90;34.46
40850;BME280;26571;41.610;25.380;2023-02-14T14:00:51;99183.59;;;12.97;34.96
40850;BME280;26571;41.610;25.380;2023-02-14T14:06:14;99182.63;;;12.89;35.36
40850;BME280;26571;41.610;25.380;2023-02-14T14:08:42;99173.34;;;12.85;34.31
40850;BME280;26571;41.610;25.380;2023-02-14T14:21:34;99191.41;;;12.48;35.68
40850;BME280;26571;41.610;25.380;2023-02-14T14:26:47;99177.38;;;12.39;35.52
40850;BME280;26571;41.610;25.380;2023-02-14T14:31:46;99174.16;;;12.27;35.52
40850;BME280;26571;41.610;25.380;2023-02-14T14:34:18;99140.44;;;12.05;36.37
40850;BME280;26571;41.610;25.380;2023-02-14T14:36:45;99162.47;;;12.30;35.88
40850;BME280;26571;41.610;25.380;2023-02-14T14:39:10;99163.94;;;12.24;35.24
40850;BME280;26571;41.610;25.380;2023-02-14T14:41:38;99171.34;;;12.21;36.19
40850;BME280;26571;41.610;25.380;2023-02-14T14:44:04;99157.25;;;12.04;35.85
40850;BME280;26571;41.610;25.380;2023-02-14T14:46:31;99170.75;;;12.01;36.12
40850;BME280;26571;41.610;25.380;2023-02-14T14:48:57;99182.78;;;12.03;36.13
40850;BME280;26571;41.610;25.380;2023-02-14T14:51:25;99140.28;;;11.80;36.81
40850;BME280;26571;41.610;25.380;2023-02-14T14:54:06;99141.44;;;12.04;35.64
40850;BME280;26571;41.610;25.380;2023-02-14T14:56:47;99189.06;;;12.02;36.86
40850;BME280;26571;41.610;25.380;2023-02-14T14:59:33;99189.41;;;11.81;36.71
40850;BME280;26571;41.610;25.380;2023-02-14T15:02:00;99181.41;;;11.65;36.09
40850;BME280;26571;41.610;25.380;2023-02-14T15:04:32;99193.69;;;11.56;36.92
40850;BME280;26571;41.610;25.380;2023-02-14T15:07:20;99197.47;;;11.54;37.27
40850;BME280;26571;41.610;25.380;2023-02-14T15:09:48;99199.25;;;11.53;37.09
40850;BME280;26571;41.610;25.380;2023-02-14T15:12:18;99212.25;;;11.47;37.25
40850;BME280;26571;41.610;25.380;2023-02-14T15:15:03;99217.50;;;11.47;37.99
40850;BME280;26571;41.610;25.380;2023-02-14T15:17:31;99211.13;;;11.49;37.46
40850;BME280;26571;41.610;25.380;2023-02-14T15:20:21;99231.75;;;11.36;37.11
40850;BME280;26571;41.610;25.380;2023-02-14T15:22:49;99223.84;;;11.18;38.86
40850;BME280;26571;41.610;25.380;2023-02-14T15:25:21;99223.41;;;11.23;39.14